createdAt,value
2023-03-24T00:02:24.750Z,98043.53
2023-03-24T00:04:53.525Z,98046.31
2023-03-24T00:07:25.261Z,98038.72
2023-03-24T00:09:51.865Z,98027.31
2023-03-24T00:12:18.608Z,98038.19
2023-03-24T00:14:48.250Z,98036.38
2023-03-24T00:17:17.451Z,98028.53
2023-03-24T00:19:45.231Z,98032.06
2023-03-24T00:22:15.704Z,98018.84
2023-03-24T00:24:46.220Z,98009.72
2023-03-24T00:27:17.656Z,98014.03
2023-03-24T00:29:44.510Z,98002.88
2023-03-24T00:32:10.971Z,98007.41
2023-03-24T00:34:38.595Z,98008.34
2023-03-24T00:37:06.230Z,98008.59
2023-03-24T00:39:33.009Z,98011.34
2023-03-24T00:42:01.805Z,98011.59
2023-03-24T00:44:28.458Z,98006.50
2023-03-24T00:46:57.884Z,98009.78
2023-03-24T00:49:48.196Z,98015.81
2023-03-24T00:52:18.129Z,98004.38
2023-03-24T00:54:45.992Z,98014.50
2023-03-24T00:57:14.586Z,98008.63
2023-03-24T00:59:49.003Z,97983.56
2023-03-24T01:02:19.324Z,97989.25
2023-03-24T01:04:47.243Z,97993.81
2023-03-24T01:07:18.138Z,97977.28
2023-03-24T01:09:51.829Z,97965.59
2023-03-24T01:12:19.444Z,97970.63
2023-03-24T01:14:46.374Z,97958.25
2023-03-24T01:17:13.147Z,97972.16
2023-03-24T01:19:40.753Z,97967.72
2023-03-24T01:22:07.265Z,97963.88
2023-03-24T01:24:33.752Z,97947.88
2023-03-24T01:27:00.162Z,97978.84
2023-03-24T01:29:26.650Z,97943.69
2023-03-24T01:31:53.144Z,97974.31
2023-03-24T01:34:19.741Z,97963.44
2023-03-24T01:36:46.334Z,97968.31
2023-03-24T01:39:12.822Z,97980.06
2023-03-24T01:41:41.239Z,97979.16
2023-03-24T01:44:28.909Z,97973.31
2023-03-24T01:46:56.363Z,97963.47
2023-03-24T01:49:25.388Z,97969.09
2023-03-24T01:51:57.030Z,97949.66
2023-03-24T01:54:40.584Z,97948.59
2023-03-24T01:57:15.008Z,97957.50
2023-03-24T01:59:44.249Z,97968.72
2023-03-24T02:02:13.692Z,97945.16
2023-03-24T02:04:43.807Z,97937.88
2023-03-24T02:07:16.511Z,97936.28
2023-03-24T02:09:43.046Z,97944.94
2023-03-24T02:12:09.588Z,97945.22
2023-03-24T02:14:36.329Z,97936.69
2023-03-24T02:17:12.026Z,97930.09
2023-03-24T02:20:02.489Z,97935.22
2023-03-24T02:23:14.502Z,97920.56
2023-03-24T02:26:19.234Z,97923.16
2023-03-24T02:29:05.343Z,97926.22
2023-03-24T02:31:43.903Z,97932.31
2023-03-24T02:34:22.623Z,97909.50
2023-03-24T02:37:21.189Z,97911.31
2023-03-24T02:40:13.888Z,97910.31
2023-03-24T02:43:11.320Z,97909.31
2023-03-24T02:45:47.257Z,97909.09
2023-03-24T02:48:36.684Z,97911.09
2023-03-24T02:51:03.126Z,97899.94
2023-03-24T02:53:58.886Z,97892.09
2023-03-24T02:57:00.830Z,97898.44
2023-03-24T02:59:37.455Z,97884.50
2023-03-24T03:02:08.155Z,97862.03
2023-03-24T03:04:39.854Z,97866.78
2023-03-24T03:07:10.060Z,97857.41
2023-03-24T03:09:41.110Z,97855.63
2023-03-24T03:12:09.498Z,97848.28
2023-03-24T03:14:40.140Z,97849.28
2023-03-24T03:17:10.819Z,97840.91
2023-03-24T03:19:43.769Z,97830.31
2023-03-24T03:22:21.265Z,97828.03
2023-03-24T03:24:53.131Z,97827.25
2023-03-24T03:27:31.212Z,97803.06
2023-03-24T03:30:02.786Z,97818.19
2023-03-24T03:32:35.948Z,97815.16
2023-03-24T03:35:17.144Z,97808.13
2023-03-24T03:38:14.037Z,97793.28
2023-03-24T03:40:55.607Z,97800.41
2023-03-24T03:43:23.037Z,97801.69
2023-03-24T03:45:49.554Z,97804.53
2023-03-24T03:48:16.684Z,97790.44
2023-03-24T03:50:43.179Z,97795.97
2023-03-24T03:53:10.104Z,97793.25
2023-03-24T03:55:36.838Z,97796.03
2023-03-24T03:58:04.507Z,97787.66
2023-03-24T04:00:31.389Z,97785.88
2023-03-24T04:03:11.421Z,97783.09
2023-03-24T04:06:04.056Z,97783.91
2023-03-24T04:08:50.619Z,97777.06
2023-03-24T04:11:36.853Z,97778.03
2023-03-24T04:14:41.642Z,97776.31
2023-03-24T04:17:33.572Z,97784.63
2023-03-24T04:20:21.204Z,97781.78
2023-03-24T04:23:09.338Z,97769.31
2023-03-24T04:25:58.677Z,97766.03
2023-03-24T04:28:27.711Z,97772.56
2023-03-24T04:31:01.291Z,97769.78
2023-03-24T04:33:42.443Z,97771.78
2023-03-24T04:36:27.393Z,97758.06
2023-03-24T04:38:54.945Z,97752.13
2023-03-24T04:41:22.197Z,97749.81
2023-03-24T04:43:48.951Z,97738.50
2023-03-24T04:46:18.054Z,97749.53
2023-03-24T04:48:48.072Z,97720.53
2023-03-24T04:51:15.868Z,97707.63
2023-03-24T04:53:42.376Z,97732.59
2023-03-24T04:56:30.988Z,97713.63
2023-03-24T04:58:58.738Z,97724.56
2023-03-24T05:01:30.841Z,97723.03
2023-03-24T05:03:58.391Z,97726.34
2023-03-24T05:06:25.947Z,97719.78
2023-03-24T05:08:52.619Z,97717.53
2023-03-24T05:11:20.432Z,97721.81
2023-03-24T05:13:47.567Z,97712.16
2023-03-24T05:16:14.416Z,97706.78
2023-03-24T05:18:41.480Z,97712.34
2023-03-24T05:21:07.974Z,97691.63
2023-03-24T05:23:34.436Z,97711.97
2023-03-24T05:26:01.373Z,97689.31
2023-03-24T05:28:27.931Z,97716.53
2023-03-24T05:30:54.487Z,97696.16
2023-03-24T05:33:21.379Z,97699.16
2023-03-24T05:35:48.176Z,97700.53
2023-03-24T05:38:15.020Z,97711.66
2023-03-24T05:40:41.532Z,97698.03
2023-03-24T05:43:08.393Z,97702.22
2023-03-24T05:45:35.354Z,97700.88
2023-03-24T05:48:01.915Z,97679.66
2023-03-24T05:50:28.465Z,97707.38
2023-03-24T05:52:54.825Z,97704.06
2023-03-24T05:55:21.970Z,97716.75
2023-03-24T05:57:48.429Z,97718.47
2023-03-24T06:00:17.155Z,97713.91
2023-03-24T06:02:44.695Z,97720.97
2023-03-24T06:05:11.809Z,97729.06
2023-03-24T06:07:40.155Z,97727.03
2023-03-24T06:10:07.779Z,97729.50
2023-03-24T06:12:34.241Z,97731.47
2023-03-24T06:15:03.679Z,97727.66
2023-03-24T06:17:30.792Z,97723.69
2023-03-24T06:20:02.769Z,97706.38
2023-03-24T06:22:30.263Z,97714.69
2023-03-24T06:24:58.687Z,97719.97
2023-03-24T06:27:30.061Z,97711.91
2023-03-24T06:29:57.526Z,97722.78
2023-03-24T06:32:24.447Z,97726.84
2023-03-24T06:34:51.172Z,97708.34
2023-03-24T06:37:17.925Z,97709.41
2023-03-24T06:39:44.337Z,97687.59
2023-03-24T06:42:10.838Z,97693.72
2023-03-24T06:44:37.670Z,97697.78
2023-03-24T06:47:04.606Z,97703.66
2023-03-24T06:49:31.077Z,97707.19
2023-03-24T06:51:57.463Z,97706.22
2023-03-24T06:54:23.920Z,97702.66
2023-03-24T06:56:50.409Z,97727.78
2023-03-24T06:59:17.809Z,97746.56
2023-03-24T07:01:44.297Z,97694.47
2023-03-24T07:04:11.273Z,97744.84
2023-03-24T07:06:50.913Z,97733.53
2023-03-24T07:09:25.973Z,97751.78
2023-03-24T07:11:52.365Z,97758.34
2023-03-24T07:14:19.076Z,97768.53
2023-03-24T07:16:45.639Z,97756.28
2023-03-24T07:19:12.326Z,97749.44
2023-03-24T07:21:38.733Z,97743.03
2023-03-24T07:24:05.423Z,97739.19
2023-03-24T07:26:31.872Z,97749.56
2023-03-24T07:28:58.274Z,97751.06
2023-03-24T07:31:24.841Z,97741.41
2023-03-24T07:33:51.360Z,97743.38
2023-03-24T07:36:17.846Z,97748.66
2023-03-24T07:38:44.306Z,97759.53
2023-03-24T07:41:10.801Z,97750.31
2023-03-24T07:43:37.238Z,97755.47
2023-03-24T07:46:03.774Z,97756.41
2023-03-24T07:48:30.823Z,97733.88
2023-03-24T07:50:57.341Z,97750.66
2023-03-24T07:53:23.995Z,97745.75
2023-03-24T07:55:50.672Z,97747.22
2023-03-24T07:58:17.160Z,97751.09
2023-03-24T08:00:44.714Z,97750.53
2023-03-24T08:03:15.392Z,97743.22
2023-03-24T08:05:43.511Z,97758.50
2023-03-24T08:08:10.560Z,97759.72
2023-03-24T08:10:37.182Z,97756.19
2023-03-24T08:13:03.927Z,97767.66
2023-03-24T08:15:30.437Z,97777.69
2023-03-24T08:17:57.113Z,97767.34
2023-03-24T08:20:26.960Z,97781.59
2023-03-24T08:22:54.549Z,97773.53
2023-03-24T08:25:23.698Z,97751.53
2023-03-24T08:27:50.413Z,97777.47
2023-03-24T08:30:20.085Z,97768.44
2023-03-24T08:33:00.836Z,97778.13
2023-03-24T08:35:32.611Z,97768.44
2023-03-24T08:38:00.993Z,97778.22
2023-03-24T08:40:29.180Z,97781.78
2023-03-24T08:42:59.587Z,97778.66
2023-03-24T08:45:29.841Z,97780.91
2023-03-24T08:47:58.620Z,97790.84
2023-03-24T08:50:28.150Z,97792.88
2023-03-24T08:52:57.731Z,97799.25
2023-03-24T08:55:24.883Z,97804.94
2023-03-24T08:57:51.721Z,97794.47
2023-03-24T09:00:19.394Z,97797.38
2023-03-24T09:02:51.914Z,97802.13
2023-03-24T09:05:29.835Z,97804.38
2023-03-24T09:08:03.590Z,97812.78
2023-03-24T09:10:30.123Z,97815.03
2023-03-24T09:12:56.581Z,97811.47
2023-03-24T09:15:23.189Z,97813.94
2023-03-24T09:17:49.700Z,97812.84
2023-03-24T09:20:16.738Z,97797.00
2023-03-24T09:22:45.169Z,97808.41
2023-03-24T09:25:14.444Z,97803.56
2023-03-24T09:27:41.268Z,97799.47
2023-03-24T09:30:09.517Z,97825.13
2023-03-24T09:32:37.062Z,97815.94
2023-03-24T09:35:03.871Z,97810.34
2023-03-24T09:37:31.569Z,97793.91
2023-03-24T09:39:59.917Z,97799.88
2023-03-24T09:42:29.162Z,97805.50
2023-03-24T09:44:58.157Z,97802.69
2023-03-24T09:47:32.055Z,97806.25
2023-03-24T09:50:02.957Z,97798.94
2023-03-24T09:52:35.645Z,97794.81
2023-03-24T09:55:03.038Z,97788.59
2023-03-24T09:57:40.900Z,97786.06
2023-03-24T10:00:19.415Z,97799.78
2023-03-24T10:02:46.290Z,97788.81
2023-03-24T10:05:15.008Z,97779.72
2023-03-24T10:07:57.039Z,97778.91
2023-03-24T10:10:56.620Z,97784.25
2023-03-24T10:13:47.655Z,97803.16
2023-03-24T10:16:25.211Z,97799.91
2023-03-24T10:19:19.772Z,97815.59
2023-03-24T10:22:04.338Z,97825.41
2023-03-24T10:24:44.592Z,97814.34
2023-03-24T10:27:13.917Z,97829.41
2023-03-24T10:29:41.156Z,97844.59
2023-03-24T10:32:22.129Z,97849.44
2023-03-24T10:34:54.002Z,97841.63
2023-03-24T10:37:21.075Z,97858.59
2023-03-24T10:39:49.605Z,97871.78
2023-03-24T10:42:21.699Z,97841.22
2023-03-24T10:44:50.178Z,97865.94
2023-03-24T10:47:19.443Z,97869.09
2023-03-24T10:50:12.184Z,97873.50
2023-03-24T10:52:46.797Z,97873.84
2023-03-24T10:55:19.335Z,97889.72
2023-03-24T10:57:57.624Z,97898.41
2023-03-24T11:00:29.554Z,97903.19
2023-03-24T11:02:59.434Z,97906.81
2023-03-24T11:05:31.764Z,97911.22
2023-03-24T11:08:21.426Z,97912.81
2023-03-24T11:10:47.869Z,97917.72
2023-03-24T11:13:28.171Z,97930.72
2023-03-24T11:16:15.225Z,97934.03
2023-03-24T11:19:05.997Z,97940.66
2023-03-24T11:21:36.362Z,97933.59
2023-03-24T11:24:09.048Z,97939.69
2023-03-24T11:26:37.322Z,97938.91
2023-03-24T11:29:15.984Z,97914.13
2023-03-24T11:31:42.792Z,97938.72
2023-03-24T11:34:41.949Z,97946.25
2023-03-24T11:37:12.391Z,97936.97
2023-03-24T11:39:38.940Z,97955.13
2023-03-24T11:42:05.462Z,97948.78
2023-03-24T11:44:37.951Z,97957.66
2023-03-24T11:47:17.086Z,97964.25
2023-03-24T11:49:47.086Z,97952.31
2023-03-24T11:52:21.866Z,97954.06
2023-03-24T11:54:48.317Z,97959.88
2023-03-24T11:57:20.966Z,97956.59
2023-03-24T12:00:00.168Z,97964.19
2023-03-24T12:03:06.233Z,97964.94
2023-03-24T12:05:45.044Z,97970.28
2023-03-24T12:08:31.771Z,97960.91
2023-03-24T12:11:19.708Z,97974.03
2023-03-24T12:13:51.615Z,97984.38
2023-03-24T12:16:43.137Z,97990.22
2023-03-24T12:19:39.100Z,97985.69
2023-03-24T12:22:42.878Z,97992.06
2023-03-24T12:25:24.505Z,97984.81
2023-03-24T12:28:00.078Z,97982.56
2023-03-24T12:30:34.906Z,97979.00
2023-03-24T12:33:11.468Z,97964.59
2023-03-24T12:36:04.449Z,97967.66
2023-03-24T12:38:33.867Z,97967.66
2023-03-24T12:41:10.988Z,97968.44
2023-03-24T12:43:55.709Z,97965.63
2023-03-24T12:46:47.733Z,97954.78
2023-03-24T12:49:21.025Z,97952.75
2023-03-24T12:52:03.439Z,97942.34
2023-03-24T12:54:53.522Z,97930.41
2023-03-24T12:57:23.255Z,97944.06
2023-03-24T13:00:13.406Z,97925.75
2023-03-24T13:02:44.403Z,97914.59
2023-03-24T13:05:55.522Z,97915.78
2023-03-24T13:08:29.296Z,97938.53
2023-03-24T13:11:05.286Z,97922.78
2023-03-24T13:13:41.300Z,97910.75
2023-03-24T13:16:17.682Z,97907.63
2023-03-24T13:18:47.143Z,97914.50
2023-03-24T13:21:17.645Z,97894.84
2023-03-24T13:23:56.672Z,97895.00
2023-03-24T13:26:39.718Z,97879.31
2023-03-24T13:29:38.499Z,97864.13
2023-03-24T13:32:25.899Z,97872.78
2023-03-24T13:35:01.263Z,97876.84
2023-03-24T13:37:34.098Z,97898.66
2023-03-24T13:40:01.947Z,97905.75
2023-03-24T13:43:14.702Z,97902.66
2023-03-24T13:45:51.889Z,97903.84
2023-03-24T13:48:41.835Z,97905.28
2023-03-24T13:51:19.888Z,97894.78
2023-03-24T13:53:55.710Z,97899.84
2023-03-24T13:56:34.118Z,97906.09
2023-03-24T13:59:24.896Z,97900.75
2023-03-24T14:02:10.103Z,97892.38
2023-03-24T14:04:55.185Z,97901.28
2023-03-24T14:07:39.910Z,97914.25
2023-03-24T14:10:20.679Z,97903.16
2023-03-24T14:12:59.343Z,97903.09
2023-03-24T14:15:28.796Z,97893.41
2023-03-24T14:17:56.894Z,97899.66
2023-03-24T14:20:58.395Z,97911.06
2023-03-24T14:23:48.110Z,97904.03
2023-03-24T14:26:20.679Z,97914.41
2023-03-24T14:28:48.677Z,97901.16
2023-03-24T14:31:18.422Z,97911.75
2023-03-24T14:33:54.213Z,97915.25
2023-03-24T14:36:39.350Z,97914.78
2023-03-24T14:39:35.150Z,97899.78
2023-03-24T14:42:01.765Z,97905.84
2023-03-24T14:44:47.154Z,97905.34
2023-03-24T14:47:16.818Z,97903.84
2023-03-24T14:49:44.873Z,97894.97
2023-03-24T14:52:13.665Z,97899.34
2023-03-24T14:54:48.554Z,97897.63
2023-03-24T14:57:20.487Z,97902.44
2023-03-24T14:59:58.636Z,97894.53
2023-03-24T15:02:34.110Z,97902.59
2023-03-24T15:05:16.496Z,97885.00
2023-03-24T15:07:44.414Z,97890.09
2023-03-24T15:10:18.984Z,97885.63
2023-03-24T15:12:47.107Z,97897.03
2023-03-24T15:15:18.977Z,97877.25
2023-03-24T15:17:46.908Z,97886.56
2023-03-24T15:20:36.198Z,97883.25
2023-03-24T15:23:20.019Z,97895.16
2023-03-24T15:25:49.706Z,97893.66
2023-03-24T15:28:26.578Z,97896.97
2023-03-24T15:30:53.855Z,97921.13
2023-03-24T15:33:21.779Z,97910.56
2023-03-24T15:35:59.498Z,97912.06
2023-03-24T15:38:33.086Z,97896.19
2023-03-24T15:41:10.245Z,97918.13
2023-03-24T15:43:44.585Z,97918.56
2023-03-24T15:46:22.414Z,97907.88
2023-03-24T15:48:49.062Z,97892.47
2023-03-24T15:51:15.530Z,97906.13
2023-03-24T15:53:56.598Z,97891.63
2023-03-24T15:56:36.286Z,97893.38
2023-03-24T15:59:12.043Z,97894.88
2023-03-24T16:01:39.232Z,97897.91
2023-03-24T16:04:07.955Z,97884.59
2023-03-24T16:06:35.591Z,97907.47
2023-03-24T16:09:06.698Z,97918.91
2023-03-24T16:11:33.118Z,97912.56
2023-03-24T16:14:13.190Z,97917.94
2023-03-24T16:16:39.986Z,97923.28
2023-03-24T16:19:06.495Z,97924.09
2023-03-24T16:21:33.008Z,97924.41
2023-03-24T16:24:00.555Z,97925.22
2023-03-24T16:26:29.425Z,97925.06
2023-03-24T16:29:01.731Z,97927.69
2023-03-24T16:31:30.972Z,97918.84
2023-03-24T16:33:58.234Z,97910.25
2023-03-24T16:36:28.005Z,97903.81
2023-03-24T16:38:56.182Z,97901.75
2023-03-24T16:41:23.238Z,97914.41
2023-03-24T16:43:50.309Z,97909.06
2023-03-24T16:46:20.872Z,97912.59
2023-03-24T16:48:47.449Z,97914.91
2023-03-24T16:51:15.762Z,97902.31
2023-03-24T16:53:43.344Z,97925.84
2023-03-24T16:56:13.226Z,97927.88
2023-03-24T16:58:39.681Z,97931.66
2023-03-24T17:01:27.224Z,97924.31
2023-03-24T17:03:59.027Z,97923.63
2023-03-24T17:06:27.180Z,97910.41
2023-03-24T17:08:53.785Z,97910.94
2023-03-24T17:11:26.014Z,97901.13
2023-03-24T17:13:53.963Z,97888.50
2023-03-24T17:16:20.600Z,97909.50
2023-03-24T17:18:47.061Z,97920.72
2023-03-24T17:21:15.859Z,97920.56
2023-03-24T17:23:49.480Z,97919.09
2023-03-24T17:26:16.871Z,97908.34
2023-03-24T17:28:43.912Z,97919.00
2023-03-24T17:31:10.823Z,97908.88
2023-03-24T17:33:37.343Z,97917.56
2023-03-24T17:36:04.302Z,97914.63
2023-03-24T17:38:30.808Z,97926.84
2023-03-24T17:41:01.799Z,97923.88
2023-03-24T17:43:28.395Z,97910.78
2023-03-24T17:45:59.345Z,97892.13
2023-03-24T17:48:26.485Z,97919.91
2023-03-24T17:50:53.700Z,97918.44
2023-03-24T17:53:26.537Z,97923.50
2023-03-24T17:55:54.614Z,97923.59
2023-03-24T17:58:21.687Z,97916.28
2023-03-24T18:00:49.151Z,97934.53
2023-03-24T18:03:16.548Z,97931.78
2023-03-24T18:05:43.754Z,97937.09
2023-03-24T18:08:12.293Z,97935.59
2023-03-24T18:10:39.242Z,97933.56
2023-03-24T18:13:06.754Z,97943.97
2023-03-24T18:15:34.641Z,97927.53
2023-03-24T18:18:01.353Z,97924.03
2023-03-24T18:20:27.857Z,97937.97
2023-03-24T18:22:54.408Z,97944.28
2023-03-24T18:25:21.044Z,97935.72
2023-03-24T18:27:47.633Z,97945.31
2023-03-24T18:30:14.367Z,97946.88
2023-03-24T18:32:40.799Z,97944.59
2023-03-24T18:35:09.942Z,97937.78
2023-03-24T18:37:36.470Z,97944.88
2023-03-24T18:40:07.137Z,97933.50
2023-03-24T18:42:33.792Z,97927.44
2023-03-24T18:45:00.270Z,97949.94
2023-03-24T18:47:26.671Z,97940.09
2023-03-24T18:49:53.048Z,97930.44
2023-03-24T18:52:19.456Z,97918.34
2023-03-24T18:54:46.252Z,97953.22
2023-03-24T18:57:13.071Z,97948.94
2023-03-24T18:59:39.609Z,97949.19
2023-03-24T19:02:06.259Z,97940.31
2023-03-24T19:04:32.878Z,97942.63
2023-03-24T19:07:00.624Z,97938.31
2023-03-24T19:09:27.262Z,97935.53
2023-03-24T19:11:54.592Z,97939.31
2023-03-24T19:14:21.128Z,97932.00
2023-03-24T19:16:47.595Z,97947.16
2023-03-24T19:19:14.239Z,97948.41
2023-03-24T19:21:40.876Z,97932.72
2023-03-24T19:24:07.704Z,97932.72
2023-03-24T19:26:34.257Z,97943.63
2023-03-24T19:29:01.207Z,97956.22
2023-03-24T19:31:27.774Z,97957.50
2023-03-24T19:33:55.095Z,97954.44
2023-03-24T19:36:21.653Z,97954.19
2023-03-24T19:38:48.206Z,97961.00
2023-03-24T19:41:15.920Z,97961.25
2023-03-24T19:43:42.397Z,97953.13
2023-03-24T19:46:09.208Z,97953.63
2023-03-24T19:48:35.808Z,97949.31
2023-03-24T19:51:02.582Z,97959.66
2023-03-24T19:53:29.459Z,97960.91
2023-03-24T19:55:57.655Z,97937.91
2023-03-24T19:58:24.205Z,97961.19
2023-03-24T20:00:51.972Z,97964.47
2023-03-24T20:03:18.968Z,97952.88
2023-03-24T20:05:45.597Z,97956.66
2023-03-24T20:08:12.125Z,97955.66
2023-03-24T20:10:40.096Z,97974.91
2023-03-24T20:13:07.693Z,97972.88
2023-03-24T20:15:34.149Z,97972.38
2023-03-24T20:18:00.881Z,97985.53
2023-03-24T20:20:27.784Z,97976.44
2023-03-24T20:22:54.354Z,97977.72
2023-03-24T20:25:22.275Z,97994.16
2023-03-24T20:27:48.947Z,97996.94
2023-03-24T20:30:17.123Z,97991.88
2023-03-24T20:32:43.718Z,97996.44
2023-03-24T20:35:10.859Z,97985.81
2023-03-24T20:37:37.812Z,97971.38
2023-03-24T20:40:09.386Z,97983.50
2023-03-24T20:42:36.221Z,97977.69
2023-03-24T20:45:02.949Z,97979.72
2023-03-24T20:47:29.426Z,97957.72
2023-03-24T20:49:55.950Z,97980.25
2023-03-24T20:52:23.346Z,97986.28
2023-03-24T20:54:51.359Z,97994.38
2023-03-24T20:57:19.120Z,97999.16
2023-03-24T20:59:48.047Z,98010.28
2023-03-24T21:02:15.517Z,98007.28
2023-03-24T21:04:42.206Z,98003.97
2023-03-24T21:07:08.776Z,98005.00
2023-03-24T21:09:35.264Z,97994.63
2023-03-24T21:12:03.044Z,97997.16
2023-03-24T21:14:30.148Z,97993.66
2023-03-24T21:16:56.876Z,97973.41
2023-03-24T21:19:24.028Z,97992.66
2023-03-24T21:21:50.750Z,97995.44
2023-03-24T21:24:17.829Z,97987.09
2023-03-24T21:26:46.260Z,98024.28
2023-03-24T21:29:13.122Z,98034.41
2023-03-24T21:31:41.689Z,98005.81
2023-03-24T21:34:08.630Z,98040.47
2023-03-24T21:36:38.115Z,98047.03
2023-03-24T21:39:06.889Z,98060.94
2023-03-24T21:41:33.536Z,98055.63
2023-03-24T21:44:00.494Z,98048.53
2023-03-24T21:46:27.863Z,98053.34
2023-03-24T21:48:55.620Z,98042.47
2023-03-24T21:51:30.773Z,98054.09
2023-03-24T21:54:03.454Z,98054.09
2023-03-24T21:56:34.204Z,98049.03
2023-03-24T21:59:01.024Z,98054.59
2023-03-24T22:01:27.603Z,98062.22
2023-03-24T22:03:54.542Z,98061.94
2023-03-24T22:06:24.334Z,98059.91
2023-03-24T22:08:52.990Z,98062.94
2023-03-24T22:11:19.737Z,98053.56
2023-03-24T22:13:46.648Z,98038.88
2023-03-24T22:16:13.675Z,98033.06
2023-03-24T22:18:40.404Z,98030.00
2023-03-24T22:21:08.766Z,98023.69
2023-03-24T22:23:39.133Z,98029.00
2023-03-24T22:26:11.760Z,98020.91
2023-03-24T22:28:39.395Z,98009.25
2023-03-24T22:31:11.684Z,98014.56
2023-03-24T22:33:38.692Z,98011.72
2023-03-24T22:36:06.266Z,97999.03
2023-03-24T22:38:34.537Z,97977.53
2023-03-24T22:41:08.159Z,97991.19
2023-03-24T22:43:35.803Z,97989.13
2023-03-24T22:46:02.811Z,97982.53
2023-03-24T22:48:29.316Z,97951.16
2023-03-24T22:50:56.072Z,97973.16
2023-03-24T22:53:22.902Z,97974.41
2023-03-24T22:55:49.627Z,97963.00
2023-03-24T22:58:16.797Z,97967.31
2023-03-24T23:00:45.416Z,97980.91
2023-03-24T23:03:12.134Z,97953.31
2023-03-24T23:05:47.986Z,97984.66
2023-03-24T23:08:15.649Z,97981.78
2023-03-24T23:10:46.844Z,97976.50
2023-03-24T23:13:13.776Z,97967.81
2023-03-24T23:15:42.422Z,97983.50
2023-03-24T23:18:09.204Z,97977.97
2023-03-24T23:20:36.363Z,97978.94
2023-03-24T23:23:05.881Z,97982.97
2023-03-24T23:25:34.679Z,97972.59
2023-03-24T23:28:01.327Z,97967.75
2023-03-24T23:30:27.727Z,97975.84
2023-03-24T23:32:54.254Z,97964.19
2023-03-24T23:35:20.797Z,97973.03
2023-03-24T23:37:48.293Z,97969.69
2023-03-24T23:40:15.902Z,97962.59
2023-03-24T23:42:44.934Z,97961.63
2023-03-24T23:45:14.520Z,97977.50
2023-03-24T23:47:42.788Z,97969.47
2023-03-24T23:50:09.758Z,97974.78
2023-03-24T23:52:36.229Z,97989.72
2023-03-24T23:55:02.988Z,97975.63
2023-03-24T23:57:29.467Z,97973.09
2023-03-24T23:59:56.006Z,97961.25
